sensor_id;sensor_type;location;lat;lon;timestamp;P1;durP1;ratioP1;P2;durP2;ratioP2
64674;SDS011;51090;51.512;11.332;2023-06-14T00:00:58;4.25;;;1.60;;
64674;SDS011;51090;51.512;11.332;2023-06-14T00:03:24;2.42;;;1.38;;
64674;SDS011;51090;51.512;11.332;2023-06-14T00:05:50;1.73;;;1.13;;
64674;SDS011;51090;51.512;11.332;2023-06-14T00:08:17;2.90;;;1.20;;
64674;SDS011;51090;51.512;11.332;2023-06-14T00:10:44;3.30;;;1.27;;
64674;SDS011;51090;51.512;11.332;2023-06-14T00:13:10;2.75;;;1.42;;
64674;SDS011;51090;51.512;11.332;2023-06-14T00:15:36;2.42;;;1.40;;
64674;SDS011;51090;51.512;11.332;2023-06-14T00:18:02;3.05;;;1.30;;
64674;SDS011;51090;51.512;11.332;2023-06-14T00:20:29;2.17;;;1.40;;
64674;SDS011;51090;51.512;11.332;2023-06-14T00:22:57;2.92;;;1.30;;
64674;SDS011;51090;51.512;11.332;2023-06-14T00:25:26;3.10;;;1.40;;
64674;SDS011;51090;51.512;11.332;2023-06-14T00:27:54;4.40;;;1.50;;
64674;SDS011;51090;51.512;11.332;2023-06-14T00:30:20;3.25;;;1.13;;
64674;SDS011;51090;51.512;11.332;2023-06-14T00:32:47;2.25;;;1.38;;
64674;SDS011;51090;51.512;11.332;2023-06-14T00:35:13;3.08;;;1.40;;
64674;SDS011;51090;51.512;11.332;2023-06-14T00:37:40;3.15;;;1.33;;
64674;SDS011;51090;51.512;11.332;2023-06-14T00:40:06;2.53;;;1.55;;
64674;SDS011;51090;51.512;11.332;2023-06-14T00:42:32;3.60;;;1.33;;
64674;SDS011;51090;51.512;11.332;2023-06-14T00:44:59;2.40;;;1.10;;
64674;SDS011;51090;51.512;11.332;2023-06-14T00:47:25;3.92;;;1.20;;
64674;SDS011;51090;51.512;11.332;2023-06-14T00:49:52;4.22;;;1.20;;
64674;SDS011;51090;51.512;11.332;2023-06-14T00:52:19;2.97;;;1.40;;
64674;SDS011;51090;51.512;11.332;2023-06-14T00:54:49;2.55;;;1.20;;
64674;SDS011;51090;51.512;11.332;2023-06-14T00:57:15;2.50;;;1.05;;
64674;SDS011;51090;51.512;11.332;2023-06-14T00:59:45;3.17;;;1.10;;
64674;SDS011;51090;51.512;11.332;2023-06-14T01:02:12;1.90;;;1.05;;
64674;SDS011;51090;51.512;11.332;2023-06-14T01:04:43;1.98;;;1.20;;
64674;SDS011;51090;51.512;11.332;2023-06-14T01:07:25;2.70;;;1.13;;
64674;SDS011;51090;51.512;11.332;2023-06-14T01:15:30;2.45;;;1.20;;
64674;SDS011;51090;51.512;11.332;2023-06-14T01:17:57;2.40;;;1.20;;
64674;SDS011;51090;51.512;11.332;2023-06-14T01:20:28;2.72;;;1.10;;
64674;SDS011;51090;51.512;11.332;2023-06-14T01:22:56;1.50;;;1.05;;
64674;SDS011;51090;51.512;11.332;2023-06-14T01:25:22;1.98;;;1.20;;
64674;SDS011;51090;51.512;11.332;2023-06-14T01:27:50;1.83;;;1.05;;
64674;SDS011;51090;51.512;11.332;2023-06-14T01:30:19;2.30;;;0.95;;
64674;SDS011;51090;51.512;11.332;2023-06-14T01:32:47;2.67;;;1.30;;
64674;SDS011;51090;51.512;11.332;2023-06-14T01:35:16;2.33;;;1.30;;
64674;SDS011;51090;51.512;11.332;2023-06-14T01:37:42;4.05;;;1.40;;
64674;SDS011;51090;51.512;11.332;2023-06-14T01:40:11;2.47;;;1.20;;
64674;SDS011;51090;51.512;11.332;2023-06-14T01:42:39;4.03;;;1.30;;
64674;SDS011;51090;51.512;11.332;2023-06-14T01:45:06;1.95;;;1.00;;
64674;SDS011;51090;51.512;11.332;2023-06-14T01:47:34;2.00;;;1.23;;
64674;SDS011;51090;51.512;11.332;2023-06-14T01:50:01;2.63;;;1.50;;
64674;SDS011;51090;51.512;11.332;2023-06-14T01:52:28;3.80;;;1.30;;
64674;SDS011;51090;51.512;11.332;2023-06-14T01:54:55;2.55;;;1.30;;
64674;SDS011;51090;51.512;11.332;2023-06-14T01:57:21;2.65;;;1.50;;
64674;SDS011;51090;51.512;11.332;2023-06-14T01:59:48;2.22;;;1.20;;
64674;SDS011;51090;51.512;11.332;2023-06-14T02:02:15;2.33;;;1.33;;
64674;SDS011;51090;51.512;11.332;2023-06-14T02:04:41;3.08;;;1.50;;
64674;SDS011;51090;51.512;11.332;2023-06-14T02:07:07;1.92;;;1.27;;
64674;SDS011;51090;51.512;11.332;2023-06-14T02:09:34;1.92;;;1.17;;
64674;SDS011;51090;51.512;11.332;2023-06-14T02:12:01;3.47;;;1.85;;
64674;SDS011;51090;51.512;11.332;2023-06-14T02:14:27;2.72;;;1.42;;
64674;SDS011;51090;51.512;11.332;2023-06-14T02:16:53;2.72;;;1.35;;
64674;SDS011;51090;51.512;11.332;2023-06-14T02:19:20;3.75;;;1.40;;
64674;SDS011;51090;51.512;11.332;2023-06-14T02:21:46;2.70;;;1.30;;
64674;SDS011;51090;51.512;11.332;2023-06-14T02:24:12;4.07;;;1.50;;
64674;SDS011;51090;51.512;11.332;2023-06-14T02:26:39;2.72;;;1.25;;
64674;SDS011;51090;51.512;11.332;2023-06-14T02:29:07;1.95;;;1.40;;
64674;SDS011;51090;51.512;11.332;2023-06-14T02:31:35;2.38;;;1.42;;
64674;SDS011;51090;51.512;11.332;2023-06-14T02:34:02;2.83;;;1.38;;
64674;SDS011;51090;51.512;11.332;2023-06-14T02:36:28;3.03;;;1.23;;
64674;SDS011;51090;51.512;11.332;2023-06-14T02:38:57;3.60;;;1.50;;
64674;SDS011;51090;51.512;11.332;2023-06-14T02:41:23;2.35;;;1.40;;
64674;SDS011;51090;51.512;11.332;2023-06-14T02:43:51;3.42;;;1.40;;
64674;SDS011;51090;51.512;11.332;2023-06-14T02:46:17;6.20;;;1.50;;
64674;SDS011;51090;51.512;11.332;2023-06-14T02:48:43;3.85;;;1.50;;
64674;SDS011;51090;51.512;11.332;2023-06-14T02:51:10;3.65;;;1.90;;
64674;SDS011;51090;51.512;11.332;2023-06-14T02:53:38;12.00;;;2.47;;
64674;SDS011;51090;51.512;11.332;2023-06-14T02:56:05;4.20;;;1.77;;
64674;SDS011;51090;51.512;11.332;2023-06-14T02:58:31;3.03;;;1.30;;
64674;SDS011;51090;51.512;11.332;2023-06-14T03:00:58;2.08;;;1.20;;
64674;SDS011;51090;51.512;11.332;2023-06-14T03:03:28;1.95;;;1.27;;
64674;SDS011;51090;51.512;11.332;2023-06-14T03:05:54;3.47;;;1.40;;
64674;SDS011;51090;51.512;11.332;2023-06-14T03:08:21;3.08;;;1.70;;
64674;SDS011;51090;51.512;11.332;2023-06-14T03:10:52;3.67;;;1.30;;
64674;SDS011;51090;51.512;11.332;2023-06-14T03:13:18;2.00;;;1.30;;
64674;SDS011;51090;51.512;11.332;2023-06-14T03:15:47;3.30;;;1.10;;
64674;SDS011;51090;51.512;11.332;2023-06-14T03:18:15;3.70;;;1.20;;
64674;SDS011;51090;51.512;11.332;2023-06-14T03:20:41;2.55;;;1.35;;
64674;SDS011;51090;51.512;11.332;2023-06-14T03:23:10;2.15;;;1.25;;
64674;SDS011;51090;51.512;11.332;2023-06-14T03:25:37;3.35;;;1.60;;
64674;SDS011;51090;51.512;11.332;2023-06-14T03:28:05;5.43;;;1.50;;
64674;SDS011;51090;51.512;11.332;2023-06-14T03:30:31;2.35;;;1.25;;
64674;SDS011;51090;51.512;11.332;2023-06-14T03:32:57;2.70;;;1.25;;
64674;SDS011;51090;51.512;11.332;2023-06-14T03:35:26;3.13;;;1.40;;
64674;SDS011;51090;51.512;11.332;2023-06-14T03:37:53;3.90;;;1.25;;
64674;SDS011;51090;51.512;11.332;2023-06-14T03:40:20;4.82;;;1.60;;
64674;SDS011;51090;51.512;11.332;2023-06-14T03:42:47;6.65;;;1.42;;
64674;SDS011;51090;51.512;11.332;2023-06-14T03:45:13;2.00;;;1.30;;
64674;SDS011;51090;51.512;11.332;2023-06-14T03:47:39;3.28;;;1.80;;
64674;SDS011;51090;51.512;11.332;2023-06-14T03:50:05;2.15;;;1.38;;
64674;SDS011;51090;51.512;11.332;2023-06-14T03:52:31;2.13;;;1.20;;
64674;SDS011;51090;51.512;11.332;2023-06-14T03:54:58;3.60;;;1.20;;
64674;SDS011;51090;51.512;11.332;2023-06-14T03:57:25;2.40;;;1.30;;
64674;SDS011;51090;51.512;11.332;2023-06-14T03:59:51;3.78;;;1.42;;
64674;SDS011;51090;51.512;11.332;2023-06-14T04:02:17;3.00;;;1.42;;
64674;SDS011;51090;51.512;11.332;2023-06-14T04:04:44;3.25;;;1.67;;
64674;SDS011;51090;51.512;11.332;2023-06-14T04:07:11;4.00;;;1.63;;
64674;SDS011;51090;51.512;11.332;2023-06-14T04:09:37;2.50;;;1.48;;
64674;SDS011;51090;51.512;11.332;2023-06-14T04:12:05;2.40;;;1.90;;
64674;SDS011;51090;51.512;11.332;2023-06-14T04:14:32;2.65;;;1.40;;
64674;SDS011;51090;51.512;11.332;2023-06-14T04:16:58;3.65;;;1.52;;
64674;SDS011;51090;51.512;11.332;2023-06-14T04:19:24;2.58;;;1.33;;
64674;SDS011;51090;51.512;11.332;2023-06-14T04:21:50;5.55;;;1.42;;
64674;SDS011;51090;51.512;11.332;2023-06-14T04:24:16;2.83;;;1.65;;
64674;SDS011;51090;51.512;11.332;2023-06-14T04:26:42;2.70;;;1.27;;
64674;SDS011;51090;51.512;11.332;2023-06-14T04:29:16;3.03;;;1.42;;
64674;SDS011;51090;51.512;11.332;2023-06-14T04:31:45;4.40;;;1.65;;
64674;SDS011;51090;51.512;11.332;2023-06-14T04:34:12;4.03;;;1.58;;
64674;SDS011;51090;51.512;11.332;2023-06-14T04:36:41;4.70;;;1.92;;
64674;SDS011;51090;51.512;11.332;2023-06-14T04:41:42;8.23;;;1.50;;
64674;SDS011;51090;51.512;11.332;2023-06-14T04:44:09;2.22;;;1.40;;
64674;SDS011;51090;51.512;11.332;2023-06-14T04:46:35;3.17;;;1.80;;
64674;SDS011;51090;51.512;11.332;2023-06-14T04:49:20;3.50;;;2.00;;
64674;SDS011;51090;51.512;11.332;2023-06-14T04:51:48;3.47;;;1.88;;
64674;SDS011;51090;51.512;11.332;2023-06-14T04:54:22;4.72;;;2.00;;
64674;SDS011;51090;51.512;11.332;2023-06-14T04:56:50;3.83;;;1.88;;
64674;SDS011;51090;51.512;11.332;2023-06-14T04:59:16;4.40;;;1.90;;
64674;SDS011;51090;51.512;11.332;2023-06-14T05:01:42;3.55;;;1.95;;
64674;SDS011;51090;51.512;11.332;2023-06-14T05:04:15;2.85;;;1.80;;
64674;SDS011;51090;51.512;11.332;2023-06-14T05:06:42;3.75;;;1.92;;
64674;SDS011;51090;51.512;11.332;2023-06-14T05:09:13;5.15;;;1.75;;
64674;SDS011;51090;51.512;11.332;2023-06-14T05:11:41;5.07;;;2.13;;
64674;SDS011;51090;51.512;11.332;2023-06-14T05:14:09;4.10;;;1.95;;
64674;SDS011;51090;51.512;11.332;2023-06-14T05:16:36;3.00;;;1.73;;
64674;SDS011;51090;51.512;11.332;2023-06-14T05:19:02;4.18;;;2.03;;
64674;SDS011;51090;51.512;11.332;2023-06-14T05:21:31;7.30;;;1.95;;
64674;SDS011;51090;51.512;11.332;2023-06-14T05:24:00;3.08;;;1.98;;
64674;SDS011;51090;51.512;11.332;2023-06-14T05:26:27;3.63;;;2.20;;
64674;SDS011;51090;51.512;11.332;2023-06-14T05:28:56;5.03;;;2.00;;
64674;SDS011;51090;51.512;11.332;2023-06-14T05:31:23;3.95;;;1.83;;
64674;SDS011;51090;51.512;11.332;2023-06-14T05:33:51;5.45;;;2.30;;
64674;SDS011;51090;51.512;11.332;2023-06-14T05:36:18;2.67;;;2.10;;
64674;SDS011;51090;51.512;11.332;2023-06-14T05:38:46;3.45;;;2.15;;
64674;SDS011;51090;51.512;11.332;2023-06-14T05:41:12;4.90;;;2.42;;
64674;SDS011;51090;51.512;11.332;2023-06-14T05:43:38;5.07;;;2.50;;
64674;SDS011;51090;51.512;11.332;2023-06-14T05:46:04;4.65;;;2.30;;
64674;SDS011;51090;51.512;11.332;2023-06-14T05:48:30;2.97;;;2.10;;
64674;SDS011;51090;51.512;11.332;2023-06-14T05:50:57;5.25;;;2.47;;
64674;SDS011;51090;51.512;11.332;2023-06-14T05:53:23;3.70;;;2.33;;
64674;SDS011;51090;51.512;11.332;2023-06-14T05:55:50;4.63;;;2.30;;
64674;SDS011;51090;51.512;11.332;2023-06-14T05:58:18;4.75;;;2.47;;
64674;SDS011;51090;51.512;11.332;2023-06-14T06:00:45;5.05;;;2.90;;
64674;SDS011;51090;51.512;11.332;2023-06-14T06:03:11;4.05;;;2.08;;
64674;SDS011;51090;51.512;11.332;2023-06-14T06:05:38;5.32;;;2.40;;
64674;SDS011;51090;51.512;11.332;2023-06-14T06:08:04;3.63;;;2.05;;
64674;SDS011;51090;51.512;11.332;2023-06-14T06:10:30;5.47;;;2.55;;
64674;SDS011;51090;51.512;11.332;2023-06-14T06:12:56;4.05;;;2.17;;
64674;SDS011;51090;51.512;11.332;2023-06-14T06:15:22;6.90;;;2.90;;
64674;SDS011;51090;51.512;11.332;2023-06-14T06:17:48;6.35;;;2.50;;
64674;SDS011;51090;51.512;11.332;2023-06-14T06:20:16;3.90;;;2.58;;
64674;SDS011;51090;51.512;11.332;2023-06-14T06:22:42;4.63;;;2.40;;
64674;SDS011;51090;51.512;11.332;2023-06-14T06:25:08;5.35;;;2.47;;
64674;SDS011;51090;51.512;11.332;2023-06-14T06:27:35;3.95;;;2.22;;
64674;SDS011;51090;51.512;11.332;2023-06-14T06:30:05;4.65;;;2.33;;
64674;SDS011;51090;51.512;11.332;2023-06-14T06:32:31;8.25;;;2.63;;
64674;SDS011;51090;51.512;11.332;2023-06-14T06:34:57;4.53;;;2.47;;
64674;SDS011;51090;51.512;11.332;2023-06-14T06:37:24;5.90;;;2.15;;
64674;SDS011;51090;51.512;11.332;2023-06-14T06:39:50;3.35;;;2.20;;
64674;SDS011;51090;51.512;11.332;2023-06-14T06:42:16;5.15;;;2.53;;
64674;SDS011;51090;51.512;11.332;2023-06-14T06:44:41;5.57;;;2.42;;
64674;SDS011;51090;51.512;11.332;2023-06-14T06:47:07;6.35;;;2.78;;
64674;SDS011;51090;51.512;11.332;2023-06-14T06:49:34;5.55;;;3.08;;
64674;SDS011;51090;51.512;11.332;2023-06-14T06:52:04;4.53;;;2.67;;
64674;SDS011;51090;51.512;11.332;2023-06-14T06:54:32;4.03;;;2.50;;
64674;SDS011;51090;51.512;11.332;2023-06-14T06:56:58;7.18;;;2.67;;
64674;SDS011;51090;51.512;11.332;2023-06-14T06:59:24;5.05;;;2.58;;
64674;SDS011;51090;51.512;11.332;2023-06-14T07:01:50;6.60;;;3.30;;
64674;SDS011;51090;51.512;11.332;2023-06-14T07:04:16;9.77;;;3.63;;
64674;SDS011;51090;51.512;11.332;2023-06-14T07:06:42;4.88;;;2.38;;
64674;SDS011;51090;51.512;11.332;2023-06-14T07:09:08;9.45;;;3.58;;
64674;SDS011;51090;51.512;11.332;2023-06-14T07:11:38;5.32;;;2.65;;
64674;SDS011;51090;51.512;11.332;2023-06-14T07:14:04;5.22;;;2.95;;
64674;SDS011;51090;51.512;11.332;2023-06-14T07:16:30;5.93;;;2.65;;
64674;SDS011;51090;51.512;11.332;2023-06-14T07:18:56;7.38;;;2.65;;
64674;SDS011;51090;51.512;11.332;2023-06-14T07:21:22;5.28;;;3.22;;
64674;SDS011;51090;51.512;11.332;2023-06-14T07:23:47;5.82;;;3.33;;
64674;SDS011;51090;51.512;11.332;2023-06-14T07:26:15;5.60;;;3.22;;
64674;SDS011;51090;51.512;11.332;2023-06-14T07:28:41;5.68;;;3.25;;
64674;SDS011;51090;51.512;11.332;2023-06-14T07:31:09;4.82;;;3.35;;
64674;SDS011;51090;51.512;11.332;2023-06-14T07:33:36;5.72;;;3.33;;
64674;SDS011;51090;51.512;11.332;2023-06-14T07:36:02;5.35;;;3.28;;
64674;SDS011;51090;51.512;11.332;2023-06-14T07:38:28;5.72;;;3.13;;
64674;SDS011;51090;51.512;11.332;2023-06-14T07:40:53;4.07;;;2.65;;
64674;SDS011;51090;51.512;11.332;2023-06-14T07:43:19;6.43;;;3.85;;
64674;SDS011;51090;51.512;11.332;2023-06-14T07:45:45;6.80;;;3.20;;
64674;SDS011;51090;51.512;11.332;2023-06-14T07:48:11;4.60;;;2.70;;
64674;SDS011;51090;51.512;11.332;2023-06-14T07:50:36;5.38;;;3.20;;
64674;SDS011;51090;51.512;11.332;2023-06-14T07:53:02;3.50;;;2.80;;
64674;SDS011;51090;51.512;11.332;2023-06-14T07:55:28;5.07;;;2.92;;
64674;SDS011;51090;51.512;11.332;2023-06-14T07:57:53;7.63;;;3.63;;
64674;SDS011;51090;51.512;11.332;2023-06-14T08:00:19;6.68;;;3.63;;
64674;SDS011;51090;51.512;11.332;2023-06-14T08:02:45;10.02;;;3.85;;
64674;SDS011;51090;51.512;11.332;2023-06-14T08:05:11;3.97;;;2.75;;
64674;SDS011;51090;51.512;11.332;2023-06-14T08:07:38;4.35;;;2.90;;
64674;SDS011;51090;51.512;11.332;2023-06-14T08:10:05;7.13;;;3.42;;
64674;SDS011;51090;51.512;11.332;2023-06-14T08:12:31;5.38;;;3.63;;
64674;SDS011;51090;51.512;11.332;2023-06-14T08:14:58;7.72;;;3.42;;
64674;SDS011;51090;51.512;11.332;2023-06-14T08:17:24;4.65;;;2.42;;
64674;SDS011;51090;51.512;11.332;2023-06-14T08:19:49;5.30;;;2.85;;
64674;SDS011;51090;51.512;11.332;2023-06-14T08:22:15;5.13;;;2.95;;
64674;SDS011;51090;51.512;11.332;2023-06-14T08:24:43;6.55;;;2.88;;
64674;SDS011;51090;51.512;11.332;2023-06-14T08:27:09;6.00;;;3.10;;
64674;SDS011;51090;51.512;11.332;2023-06-14T08:29:35;5.82;;;2.88;;
64674;SDS011;51090;51.512;11.332;2023-06-14T08:32:01;3.50;;;2.53;;
64674;SDS011;51090;51.512;11.332;2023-06-14T08:34:26;5.95;;;2.90;;
64674;SDS011;51090;51.512;11.332;2023-06-14T08:36:52;5.25;;;2.67;;
64674;SDS011;51090;51.512;11.332;2023-06-14T08:39:18;5.43;;;2.85;;
64674;SDS011;51090;51.512;11.332;2023-06-14T08:41:45;4.10;;;2.65;;
64674;SDS011;51090;51.512;11.332;2023-06-14T08:44:13;4.45;;;3.30;;
64674;SDS011;51090;51.512;11.332;2023-06-14T08:46:42;7.07;;;2.53;;
64674;SDS011;51090;51.512;11.332;2023-06-14T08:49:08;5.45;;;2.67;;
64674;SDS011;51090;51.512;11.332;2023-06-14T08:51:37;4.15;;;2.55;;
64674;SDS011;51090;51.512;11.332;2023-06-14T08:54:05;5.15;;;2.60;;
64674;SDS011;51090;51.512;11.332;2023-06-14T08:56:32;5.28;;;3.08;;
64674;SDS011;51090;51.512;11.332;2023-06-14T08:58:59;3.80;;;2.60;;
64674;SDS011;51090;51.512;11.332;2023-06-14T09:01:30;6.90;;;2.53;;
64674;SDS011;51090;51.512;11.332;2023-06-14T09:03:59;5.10;;;2.33;;
64674;SDS011;51090;51.512;11.332;2023-06-14T09:06:27;5.93;;;2.60;;
64674;SDS011;51090;51.512;11.332;2023-06-14T09:08:54;7.40;;;2.22;;
64674;SDS011;51090;51.512;11.332;2023-06-14T09:11:23;7.15;;;3.20;;
64674;SDS011;51090;51.512;11.332;2023-06-14T09:13:51;6.72;;;2.70;;
64674;SDS011;51090;51.512;11.332;2023-06-14T09:16:16;4.63;;;3.10;;
64674;SDS011;51090;51.512;11.332;2023-06-14T09:18:43;5.13;;;2.80;;
64674;SDS011;51090;51.512;11.332;2023-06-14T09:21:13;4.50;;;2.88;;
64674;SDS011;51090;51.512;11.332;2023-06-14T09:23:41;3.67;;;2.65;;
64674;SDS011;51090;51.512;11.332;2023-06-14T09:26:13;3.88;;;2.30;;
64674;SDS011;51090;51.512;11.332;2023-06-14T09:31:13;8.65;;;2.75;;
64674;SDS011;51090;51.512;11.332;2023-06-14T09:33:44;3.65;;;2.08;;
64674;SDS011;51090;51.512;11.332;2023-06-14T09:36:16;4.28;;;2.30;;
64674;SDS011;51090;51.512;11.332;2023-06-14T09:38:52;4.45;;;2.20;;
64674;SDS011;51090;51.512;11.332;2023-06-14T09:41:32;3.00;;;2.25;;
64674;SDS011;51090;51.512;11.332;2023-06-14T09:44:06;4.57;;;2.08;;
64674;SDS011;51090;51.512;11.332;2023-06-14T09:46:33;4.43;;;2.55;;
64674;SDS011;51090;51.512;11.332;2023-06-14T09:49:01;4.13;;;2.20;;
64674;SDS011;51090;51.512;11.332;2023-06-14T09:51:28;3.67;;;2.10;;
64674;SDS011;51090;51.512;11.332;2023-06-14T09:54:01;3.67;;;2.17;;
64674;SDS011;51090;51.512;11.332;2023-06-14T09:56:34;2.40;;;1.75;;
64674;SDS011;51090;51.512;11.332;2023-06-14T09:59:04;3.97;;;2.30;;
64674;SDS011;51090;51.512;11.332;2023-06-14T10:01:32;2.85;;;2.08;;
64674;SDS011;51090;51.512;11.332;2023-06-14T10:04:04;4.80;;;1.90;;
64674;SDS011;51090;51.512;11.332;2023-06-14T10:06:31;3.30;;;1.98;;
64674;SDS011;51090;51.512;11.332;2023-06-14T10:09:01;6.65;;;2.67;;
64674;SDS011;51090;51.512;11.332;2023-06-14T10:11:32;3.22;;;1.60;;
64674;SDS011;51090;51.512;11.332;2023-06-14T10:14:00;4.18;;;2.03;;
64674;SDS011;51090;51.512;11.332;2023-06-14T10:16:28;3.38;;;2.05;;
64674;SDS011;51090;51.512;11.332;2023-06-14T10:19:06;4.05;;;2.00;;
64674;SDS011;51090;51.512;11.332;2023-06-14T10:21:54;4.55;;;2.60;;
64674;SDS011;51090;51.512;11.332;2023-06-14T10:24:32;4.55;;;2.30;;
64674;SDS011;51090;51.512;11.332;2023-06-14T10:27:05;4.57;;;1.90;;
64674;SDS011;51090;51.512;11.332;2023-06-14T10:29:35;3.10;;;2.13;;
64674;SDS011;51090;51.512;11.332;2023-06-14T10:32:26;5.07;;;2.00;;
64674;SDS011;51090;51.512;11.332;2023-06-14T10:34:59;3.85;;;2.00;;
64674;SDS011;51090;51.512;11.332;2023-06-14T10:37:30;3.72;;;1.73;;
64674;SDS011;51090;51.512;11.332;2023-06-14T10:39:56;2.83;;;1.55;;
64674;SDS011;51090;51.512;11.332;2023-06-14T10:42:23;4.60;;;1.85;;
64674;SDS011;51090;51.512;11.332;2023-06-14T10:44:57;2.10;;;1.45;;
64674;SDS011;51090;51.512;11.332;2023-06-14T10:50:06;2.83;;;1.50;;
64674;SDS011;51090;51.512;11.332;2023-06-14T10:52:38;3.85;;;1.65;;
64674;SDS011;51090;51.512;11.332;2023-06-14T10:55:15;3.40;;;1.52;;
64674;SDS011;51090;51.512;11.332;2023-06-14T11:00:11;2.38;;;1.40;;
64674;SDS011;51090;51.512;11.332;2023-06-14T11:05:48;2.33;;;1.17;;
64674;SDS011;51090;51.512;11.332;2023-06-14T11:11:10;1.92;;;1.10;;
64674;SDS011;51090;51.512;11.332;2023-06-14T11:13:38;3.40;;;1.13;;
64674;SDS011;51090;51.512;11.332;2023-06-14T11:16:13;2.75;;;1.35;;
64674;SDS011;51090;51.512;11.332;2023-06-14T11:18:41;3.35;;;1.10;;
64674;SDS011;51090;51.512;11.332;2023-06-14T11:21:09;2.30;;;1.10;;
64674;SDS011;51090;51.512;11.332;2023-06-14T11:23:35;2.10;;;1.10;;
64674;SDS011;51090;51.512;11.332;2023-06-14T11:26:01;1.83;;;1.15;;
64674;SDS011;51090;51.512;11.332;2023-06-14T11:28:38;3.80;;;1.35;;
64674;SDS011;51090;51.512;11.332;2023-06-14T11:31:05;3.88;;;1.20;;
64674;SDS011;51090;51.512;11.332;2023-06-14T11:33:31;3.47;;;1.23;;
64674;SDS011;51090;51.512;11.332;2023-06-14T11:35:57;3.67;;;1.20;;
64674;SDS011;51090;51.512;11.332;2023-06-14T11:38:23;3.28;;;1.35;;
64674;SDS011;51090;51.512;11.332;2023-06-14T11:40:50;2.72;;;1.77;;
64674;SDS011;51090;51.512;11.332;2023-06-14T11:43:16;2.72;;;1.50;;
64674;SDS011;51090;51.512;11.332;2023-06-14T11:45:42;3.25;;;1.02;;
64674;SDS011;51090;51.512;11.332;2023-06-14T11:48:08;2.83;;;1.30;;
64674;SDS011;51090;51.512;11.332;2023-06-14T11:50:37;3.80;;;1.40;;
64674;SDS011;51090;51.512;11.332;2023-06-14T11:53:03;2.40;;;1.40;;
64674;SDS011;51090;51.512;11.332;2023-06-14T11:55:35;3.17;;;1.40;;
64674;SDS011;51090;51.512;11.332;2023-06-14T11:58:05;2.55;;;1.27;;
64674;SDS011;51090;51.512;11.332;2023-06-14T12:00:31;1.98;;;1.48;;
64674;SDS011;51090;51.512;11.332;2023-06-14T12:02:57;2.55;;;1.40;;
64674;SDS011;51090;51.512;11.332;2023-06-14T12:05:24;3.15;;;1.45;;
64674;SDS011;51090;51.512;11.332;2023-06-14T12:07:57;2.65;;;1.25;;
64674;SDS011;51090;51.512;11.332;2023-06-14T12:10:39;3.17;;;1.55;;
64674;SDS011;51090;51.512;11.332;2023-06-14T12:13:08;2.35;;;1.48;;
64674;SDS011;51090;51.512;11.332;2023-06-14T12:15:34;1.88;;;1.38;;
64674;SDS011;51090;51.512;11.332;2023-06-14T12:18:00;5.40;;;1.70;;
64674;SDS011;51090;51.512;11.332;2023-06-14T12:20:31;2.95;;;1.50;;
64674;SDS011;51090;51.512;11.332;2023-06-14T12:23:02;3.60;;;1.70;;
64674;SDS011;51090;51.512;11.332;2023-06-14T12:25:29;2.83;;;1.60;;
64674;SDS011;51090;51.512;11.332;2023-06-14T12:28:07;2.27;;;1.60;;
64674;SDS011;51090;51.512;11.332;2023-06-14T12:30:35;3.05;;;1.92;;
64674;SDS011;51090;51.512;11.332;2023-06-14T12:33:02;2.17;;;1.63;;
64674;SDS011;51090;51.512;11.332;2023-06-14T12:35:28;4.07;;;1.85;;
64674;SDS011;51090;51.512;11.332;2023-06-14T12:37:54;4.82;;;1.50;;
64674;SDS011;51090;51.512;11.332;2023-06-14T12:40:20;2.75;;;1.45;;
64674;SDS011;51090;51.512;11.332;2023-06-14T12:42:45;2.58;;;1.50;;
64674;SDS011;51090;51.512;11.332;2023-06-14T12:45:14;2.92;;;1.50;;
64674;SDS011;51090;51.512;11.332;2023-06-14T12:47:40;2.65;;;1.42;;
64674;SDS011;51090;51.512;11.332;2023-06-14T12:50:07;3.17;;;1.50;;
64674;SDS011;51090;51.512;11.332;2023-06-14T12:52:33;2.17;;;1.70;;
64674;SDS011;51090;51.512;11.332;2023-06-14T12:55:04;4.28;;;2.00;;
64674;SDS011;51090;51.512;11.332;2023-06-14T12:57:30;3.28;;;1.92;;
64674;SDS011;51090;51.512;11.332;2023-06-14T12:59:56;4.22;;;1.88;;
64674;SDS011;51090;51.512;11.332;2023-06-14T13:02:22;3.55;;;1.90;;
64674;SDS011;51090;51.512;11.332;2023-06-14T13:04:49;3.47;;;2.17;;
64674;SDS011;51090;51.512;11.332;2023-06-14T13:07:15;4.25;;;2.13;;
64674;SDS011;51090;51.512;11.332;2023-06-14T13:09:41;7.05;;;2.35;;
64674;SDS011;51090;51.512;11.332;2023-06-14T13:12:11;3.55;;;2.20;;
64674;SDS011;51090;51.512;11.332;2023-06-14T13:14:37;4.95;;;2.05;;
64674;SDS011;51090;51.512;11.332;2023-06-14T13:17:05;3.75;;;1.88;;
64674;SDS011;51090;51.512;11.332;2023-06-14T13:19:32;4.65;;;2.40;;
64674;SDS011;51090;51.512;11.332;2023-06-14T13:21:58;4.63;;;2.17;;
64674;SDS011;51090;51.512;11.332;2023-06-14T13:24:24;6.05;;;2.28;;
64674;SDS011;51090;51.512;11.332;2023-06-14T13:26:50;4.00;;;1.98;;
64674;SDS011;51090;51.512;11.332;2023-06-14T13:29:15;3.80;;;2.03;;
64674;SDS011;51090;51.512;11.332;2023-06-14T13:31:42;3.55;;;2.38;;
64674;SDS011;51090;51.512;11.332;2023-06-14T13:34:07;4.75;;;2.60;;
64674;SDS011;51090;51.512;11.332;2023-06-14T13:36:33;4.13;;;2.10;;
64674;SDS011;51090;51.512;11.332;2023-06-14T13:38:59;5.00;;;2.20;;
64674;SDS011;51090;51.512;11.332;2023-06-14T13:41:26;3.33;;;2.30;;
64674;SDS011;51090;51.512;11.332;2023-06-14T13:43:58;3.65;;;2.10;;
64674;SDS011;51090;51.512;11.332;2023-06-14T13:46:25;5.25;;;2.42;;
64674;SDS011;51090;51.512;11.332;2023-06-14T13:48:51;4.18;;;1.98;;
64674;SDS011;51090;51.512;11.332;2023-06-14T13:51:17;6.30;;;1.90;;
64674;SDS011;51090;51.512;11.332;2023-06-14T13:53:53;6.22;;;1.98;;
64674;SDS011;51090;51.512;11.332;2023-06-14T13:56:20;6.93;;;2.67;;
64674;SDS011;51090;51.512;11.332;2023-06-14T13:58:47;6.50;;;2.30;;
64674;SDS011;51090;51.512;11.332;2023-06-14T14:01:13;5.00;;;2.30;;
64674;SDS011;51090;51.512;11.332;2023-06-14T14:03:39;6.53;;;2.70;;
64674;SDS011;51090;51.512;11.332;2023-06-14T14:06:04;5.40;;;2.13;;
64674;SDS011;51090;51.512;11.332;2023-06-14T14:08:32;4.35;;;2.00;;
64674;SDS011;51090;51.512;11.332;2023-06-14T14:11:00;6.00;;;2.05;;
64674;SDS011;51090;51.512;11.332;2023-06-14T14:13:26;4.70;;;2.05;;
64674;SDS011;51090;51.512;11.332;2023-06-14T14:15:51;3.63;;;2.22;;
64674;SDS011;51090;51.512;11.332;2023-06-14T14:18:17;5.22;;;1.80;;
64674;SDS011;51090;51.512;11.332;2023-06-14T14:20:45;5.15;;;2.00;;
64674;SDS011;51090;51.512;11.332;2023-06-14T14:23:12;4.35;;;2.08;;
64674;SDS011;51090;51.512;11.332;2023-06-14T14:25:37;4.22;;;1.95;;
64674;SDS011;51090;51.512;11.332;2023-06-14T14:28:03;5.18;;;2.45;;
64674;SDS011;51090;51.512;11.332;2023-06-14T14:30:29;2.50;;;1.73;;
64674;SDS011;51090;51.512;11.332;2023-06-14T14:32:54;5.35;;;1.60;;
64674;SDS011;51090;51.512;11.332;2023-06-14T14:35:20;3.33;;;1.67;;
64674;SDS011;51090;51.512;11.332;2023-06-14T14:37:48;3.42;;;2.08;;
64674;SDS011;51090;51.512;11.332;2023-06-14T14:40:14;4.25;;;1.98;;
64674;SDS011;51090;51.512;11.332;2023-06-14T14:42:39;3.20;;;1.80;;
64674;SDS011;51090;51.512;11.332;2023-06-14T14:45:05;4.93;;;2.00;;
64674;SDS011;51090;51.512;11.332;2023-06-14T14:47:32;4.13;;;1.67;;
64674;SDS011;51090;51.512;11.332;2023-06-14T14:49:57;3.60;;;2.22;;
64674;SDS011;51090;51.512;11.332;2023-06-14T14:52:23;6.57;;;2.25;;
64674;SDS011;51090;51.512;11.332;2023-06-14T14:54:49;9.25;;;2.08;;
64674;SDS011;51090;51.512;11.332;2023-06-14T14:57:15;6.70;;;2.05;;